Evanston, IL (60209)

10:34 AM CDT on June 30, 2015 (GMT -0500)
South Evanston | | Change Station
CLOSE
Current Station
Personal Weather Station
Location: Evanston, IL
Elevation: 640 ft
Nearby Weather Stations

Elev 640 ft 42.03 °N, 87.68 °W | Updated 29 seconds ago

Clear
Clear
72.1 °F
Feels Like 73 °F
N
1.0
Wind Variable Wind from South
Gusts 1.0 mph

Today
High -- | Low -- °F
--% Chance of Precip.
Yesterday
High -- | Low -- °F
Precip. -- in
5:18 AM 8:30 PM
Waxing Gibbous, 97% visible
Pressure 29.81 in
Visibility 10.0 miles
Clouds Few 1800 ft
Few 7500 ft
Heat Index 73 °F
Dew Point 64 °F
Humidity 77%
Rainfall 0.00 in
Snow Depth Not available.
UV 4 out of 12
Pollen 3.50 out of 12
Air Quality Not available.
Flu Activity Sporadic
METAR KORD 301351Z 31007KT 10SM FEW018 FEW075 19/15 A2982 RMK AO2 SLP095 T01890150

More Conditions Fewer Conditions

Pressure 29.81 in
Visibility 10.0 miles
Clouds Few 1800 ft
Few 7500 ft
Heat Index 73 °F
Dew Point 64 °F
Humidity 77%
Rainfall 0.00 in
Snow Depth Not available.
UV 4 out of 12
Pollen 3.50 out of 12
Air Quality Not available.
Flu Activity Sporadic
METAR KORD 301351Z 31007KT 10SM FEW018 FEW075 19/15 A2982 RMK AO2 SLP095 T01890150

More Conditions Fewer Conditions

10-Day Weather Forecast

×

Almanac

Astronomy

Jun. 30, 2015 Rise Set
Actual Time
Civil Twilight
Nautical Twilight
Astronomical Twilight
Moon
Length of Visible Light
Length of Day
Tomorrow will be .
, % of the Moon is Illuminated

Today's Extremes

State Highs State Lows

Community

WunderPhotos

Upload Photos

1,834,026 photos uploaded!

WunderBlogs® & News

Nearby

Air Quality

  Air Quality AQ Index Pollutant
Not available.

Snow Depth

Station Depth Elevation

Earthquake Activity

City Distance Mag. Time & Date
Minimum magnitude displayed is 2.5.

Coastal Water Temperatures

Place Temperature

Stations

Nearby Weather Stations

Station Location Temp. Windchill Dew Point Humidity Wind Precip. Elev Updated Type